Star Flyer — 9HA2512 — position and weather

sailwx.info

Track history (hours):
 
Tides and Currents Weather Stations Pressure Air Temp Water Temp Dewpoint Dewpoint Depression Visibility Wind Speed Wind Dir Waves Ship Positions

Star Flyer

Last reported at 2019-Jun-15 22:41 UTC. Time now 2019-Jun-16 01:12 UTC.
Position N 37°37' E 023°50'.

Length 112 m; draft 5.8 m.

Type: Ship. MMSI: 248785000.

Date/timePositionNaut miles runAvg speedWind from/ knotsBaromVisibWave heightAir tempDewpointWater temp
2019-Jun-15 22:41N 37°37' E 023°50'2 9.0
2019-Jun-15 22:29N 37°37' E 023°48'4 8.6
2019-Jun-15 22:00N 37°39' E 023°43'4 8.9
2019-Jun-15 21:30N 37°43' E 023°41'5 8.9
2019-Jun-15 21:00N 37°47' E 023°38'2 4.9
2019-Jun-15 20:30N 37°49' E 023°37'2 4.8
2019-Jun-15 20:00N 37°52' E 023°37'2 4.2
2019-Jun-15 19:30N 37°54' E 023°37'2 4.1
2019-Jun-15 19:00N 37°56' E 023°37'1 1.6
2019-Jun-15 18:21N 37°56' E 023°38'0 0.0
2019-Jun-15 17:21N 37°56' E 023°38'0 0.0
2019-Jun-15 16:51N 37°56' E 023°38'0 0.0
2019-Jun-15 16:15N 37°56' E 023°38'0 0.0
2019-Jun-15 15:51N 37°56' E 023°38'0 0.0
2019-Jun-15 15:07N 37°56' E 023°38'0 0.0
2019-Jun-15 14:27N 37°56' E 023°38'0 0.0
2019-Jun-15 13:57N 37°56' E 023°38'0 0.0
2019-Jun-15 13:27N 37°56' E 023°38'0 0.0
2019-Jun-15 12:57N 37°56' E 023°38'0 0.0
2019-Jun-15 12:15N 37°56' E 023°38'0 0.0
2019-Jun-15 11:49N 37°56' E 023°38'0 0.0
2019-Jun-15 11:27N 37°56' E 023°38'0 0.0
2019-Jun-15 10:43N 37°56' E 023°38'0 0.0
2019-Jun-15 10:27N 37°56' E 023°38'0 0.0
2019-Jun-15 09:57N 37°56' E 023°38'0 0.0
2019-Jun-15 09:27N 37°56' E 023°38'0 0.0
2019-Jun-15 08:57N 37°56' E 023°38'0 0.0
2019-Jun-15 08:27N 37°56' E 023°38'0 0.0
2019-Jun-15 07:57N 37°56' E 023°38'0 0.0
2019-Jun-15 07:27N 37°56' E 023°38'0 0.0
2019-Jun-15 06:57N 37°56' E 023°38'0 0.0
2019-Jun-15 06:27N 37°56' E 023°38'0 0.0
2019-Jun-15 05:58N 37°56' E 023°38'0 0.0
2019-Jun-15 05:13N 37°56' E 023°38'0 0.0
2019-Jun-15 04:58N 37°56' E 023°38'0 0.0
2019-Jun-15 04:28N 37°56' E 023°38'0 0.0
2019-Jun-15 03:58N 37°56' E 023°38'0 0.3
2019-Jun-15 03:30N 37°56' E 023°38'2 4.0
2019-Jun-15 03:00N 37°55' E 023°36'4 7.6
2019-Jun-15 02:30N 37°52' E 023°39'5 9.3
2019-Jun-15 02:00N 37°47' E 023°41'5 9.2
2019-Jun-15 01:30N 37°43' E 023°44'5 9.3
2019-Jun-15 01:00N 37°39' E 023°47'4 9.0
2019-Jun-15 00:30N 37°37' E 023°52'5 9.1
2019-Jun-15 00:00N 37°37' E 023°58'156 5.2
2019-Jun-13 17:47N 40°11' E 024°26'2 7.7
2019-Jun-13 17:30N 40°12' E 024°24'4 8.3
2019-Jun-13 17:00N 40°15' E 024°20'5 9.4
2019-Jun-13 16:30N 40°19' E 024°16'15 8.1
2019-Jun-13 14:38N 40°34' E 024°17'1 9.1
2019-Jun-13 14:30N 40°35' E 024°18'5 9.2
2019-Jun-13 14:00N 40°39' E 024°19'5 9.1
2019-Jun-13 13:30N 40°44' E 024°21'4 9.0
2019-Jun-13 13:00N 40°48' E 024°22'4 8.6
2019-Jun-13 12:30N 40°52' E 024°23'4 7.4
2019-Jun-13 12:01N 40°56' E 024°24'0 0.4
2019-Jun-13 11:29N 40°56' E 024°25'0 0.0
2019-Jun-13 11:00N 40°56' E 024°25'0 0.0
2019-Jun-13 10:28N 40°56' E 024°25'0 0.0
2019-Jun-13 10:00N 40°56' E 024°25'0 0.0
2019-Jun-13 09:30N 40°56' E 024°25'0 0.0
2019-Jun-13 08:58N 40°56' E 024°25'0 0.0
2019-Jun-13 08:28N 40°56' E 024°25'0 0.0
2019-Jun-13 07:58N 40°56' E 024°25'0 0.0
2019-Jun-13 07:28N 40°56' E 024°25'0 0.0
2019-Jun-13 06:52N 40°56' E 024°25'0 0.0
2019-Jun-13 06:28N 40°56' E 024°25'0 0.0
2019-Jun-13 05:03N 40°56' E 024°25'0 0.1
2019-Jun-13 05:00N 40°56' E 024°25'1 2.4
2019-Jun-13 04:31N 40°55' E 024°24'3 5.1
2019-Jun-13 04:00N 40°52' E 024°24'3 5.8
2019-Jun-13 03:30N 40°49' E 024°24'3 6.2
2019-Jun-13 03:00N 40°46' E 024°24'3 6.1
2019-Jun-13 02:30N 40°43' E 024°23'3 5.9
2019-Jun-13 02:00N 40°40' E 024°24'3 6.2
2019-Jun-13 01:30N 40°38' E 024°26'3 6.0
2019-Jun-13 01:00N 40°35' E 024°27'3 5.9
2019-Jun-13 00:30N 40°32' E 024°28'3 6.0
2019-Jun-13 00:00N 40°29' E 024°29'3 5.8
2019-Jun-12 23:30N 40°26' E 024°30'3 6.0
2019-Jun-12 23:00N 40°23' E 024°31'3 6.0
2019-Jun-12 22:30N 40°20' E 024°32'3 5.9
2019-Jun-12 21:58N 40°17' E 024°34'3 5.9
2019-Jun-12 21:30N 40°15' E 024°35'3 5.9
2019-Jun-12 21:00N 40°12' E 024°36'3 5.9
2019-Jun-12 20:29N 40°09' E 024°37'9 5.9
2019-Jun-12 18:57N 40°00' E 024°41'8 5.9
2019-Jun-12 17:38N 39°53' E 024°44'1 5.6
2019-Jun-12 17:28N 39°52' E 024°45'  
2019-Jun-09 18:49N 36°59' E 025°19'310.0
2019-Jun-09 18:30N 37°02' E 025°18'510.4
2019-Jun-09 18:00N 37°07' E 025°19'510.0
2019-Jun-09 17:30N 37°12' E 025°19'510.4
2019-Jun-09 17:00N 37°17' E 025°18'611.2
2019-Jun-09 16:29N 37°23' E 025°17'4 8.3
2019-Jun-09 15:57N 37°27' E 025°19'0 0.1
2019-Jun-09 13:02N 37°27' E 025°19'0 0.0
2019-Jun-09 11:56N 37°27' E 025°19'0 0.2
2019-Jun-09 11:28N 37°27' E 025°19'1 1.1
2019-Jun-09 11:00N 37°27' E 025°19'0 0.1
2019-Jun-09 10:26N 37°27' E 025°19'0 0.0
2019-Jun-09 09:56N 37°27' E 025°19'0 0.1
2019-Jun-09 08:38N 37°27' E 025°19'0 0.0
2019-Jun-09 08:29N 37°27' E 025°19'0 0.0
2019-Jun-09 07:04N 37°27' E 025°19'0 0.0
2019-Jun-09 06:56N 37°27' E 025°19'0 0.6
2019-Jun-09 06:30N 37°27' E 025°19'3 5.2
2019-Jun-09 06:01N 37°28' E 025°16'3 5.7
2019-Jun-09 05:31N 37°29' E 025°13'3 5.3
2019-Jun-09 05:00N 37°30' E 025°09'6 5.6
2019-Jun-09 04:01N 37°30' E 025°02'5 7.7
2019-Jun-09 03:23N 37°32' E 024°57'2 4.3
2019-Jun-09 02:59N 37°33' E 024°55'3 5.7
2019-Jun-09 02:30N 37°33' E 024°51'3 5.1
2019-Jun-09 02:00N 37°33' E 024°48'3 5.2
2019-Jun-09 01:30N 37°33' E 024°45'35 7.0
2019-Jun-08 20:30N 37°33' E 024°01'9 7.6
2019-Jun-08 19:16N 37°36' E 023°50'2 7.6
2019-Jun-08 19:00N 37°37' E 023°47'4 7.2
2019-Jun-08 18:31N 37°38' E 023°43'4 7.7
2019-Jun-08 18:00N 37°42' E 023°41'4 7.7
2019-Jun-08 17:30N 37°45' E 023°39'4 7.8
2019-Jun-08 17:00N 37°49' E 023°37'4 7.4
2019-Jun-08 16:30N 37°52' E 023°37'4 7.2
2019-Jun-08 16:01N 37°56' E 023°37'1 1.8
2019-Jun-08 15:28N 37°56' E 023°38'0 0.0
2019-Jun-08 14:44N 37°56' E 023°38'0 0.0
2019-Jun-08 14:26N 37°56' E 023°38'0 0.0
2019-Jun-08 13:56N 37°56' E 023°38'0 0.0
2019-Jun-08 13:08N 37°56' E 023°38'0 0.0
2019-Jun-08 12:56N 37°56' E 023°38'0 0.0
2019-Jun-08 12:26N 37°56' E 023°38'0 0.0
2019-Jun-08 11:26N 37°56' E 023°38'0 0.0
2019-Jun-08 10:59N 37°56' E 023°38'0 0.0
2019-Jun-08 10:26N 37°56' E 023°38'0 0.0
2019-Jun-08 09:56N 37°56' E 023°38'0 0.0
2019-Jun-08 09:26N 37°56' E 023°38'0 0.0
2019-Jun-08 08:59N 37°56' E 023°38'0 0.0
2019-Jun-08 08:26N 37°56' E 023°38'0 0.0
2019-Jun-08 07:59N 37°56' E 023°38'0 0.0
2019-Jun-08 07:29N 37°56' E 023°38'0 0.0
2019-Jun-08 06:59N 37°56' E 023°38'0 0.0
2019-Jun-08 06:29N 37°56' E 023°38'0 0.0
2019-Jun-08 05:59N 37°56' E 023°38'0 0.0
2019-Jun-08 05:26N 37°56' E 023°38'0 0.0
2019-Jun-08 04:59N 37°56' E 023°38'0 0.0
2019-Jun-08 04:23N 37°56' E 023°38'0 0.0
2019-Jun-08 03:59N 37°56' E 023°38'1 2.7
2019-Jun-08 03:31N 37°56' E 023°37'2 3.3
2019-Jun-08 03:00N 37°54' E 023°36'2 4.3
2019-Jun-08 02:31N 37°53' E 023°38'3 6.5
2019-Jun-08 02:01N 37°50' E 023°40'3 6.6
2019-Jun-08 01:30N 37°47' E 023°41'3 6.8
2019-Jun-08 01:01N 37°43' E 023°43'3 6.7
2019-Jun-08 00:30N 37°40' E 023°45'3 6.5
2019-Jun-08 00:00N 37°37' E 023°46'2 4.5
2019-Jun-07 23:29N 37°36' E 023°44'6 4.5
2019-Jun-07 22:09N 37°31' E 023°40'1 4.8
2019-Jun-07 21:53N 37°30' E 023°39'2 4.9
2019-Jun-07 21:30N 37°29' E 023°37'9 4.5
2019-Jun-07 19:28N 37°23' E 023°28'2 0.9
2019-Jun-07 17:29N 37°21' E 023°28'0 0.0
2019-Jun-07 16:56N 37°21' E 023°28'0 0.0
2019-Jun-07 15:02N 37°21' E 023°28'0 0.0
2019-Jun-07 14:53N 37°21' E 023°28'0 0.0
2019-Jun-07 14:08N 37°21' E 023°28'0 0.0
2019-Jun-07 11:26N 37°21' E 023°28'0 0.0
2019-Jun-07 08:53N 37°21' E 023°28'3 2.5
2019-Jun-07 07:46N 37°24' E 023°27'0 0.2
2019-Jun-07 07:21N 37°24' E 023°27'0 1.1
2019-Jun-07 07:00N 37°24' E 023°28'1 3.0
2019-Jun-07 06:30N 37°24' E 023°30'4 6.1
2019-Jun-07 05:48N 37°23' E 023°35'2 6.3
2019-Jun-07 05:30N 37°22' E 023°37'  
Track history (hours):
 
Tides and Currents Weather Stations Pressure Air Temp Water Temp Dewpoint Dewpoint Depression Visibility Wind Speed Wind Dir Waves Ship Positions

Star Flyer

Last reported at 2019-Jun-15 22:41 UTC. Time now 2019-Jun-16 01:12 UTC.
Position N 37°37' E 023°50'.

Length 112 m; draft 5.8 m.

Type: Ship. MMSI: 248785000.

Date/timePositionNaut miles runAvg speedWind from/ knotsBaromVisibWave heightAir tempDewpointWater temp
2019-Jun-15 22:41N 37°37' E 023°50'2 9.0
2019-Jun-15 22:29N 37°37' E 023°48'4 8.6
2019-Jun-15 22:00N 37°39' E 023°43'4 8.9
2019-Jun-15 21:30N 37°43' E 023°41'5 8.9
2019-Jun-15 21:00N 37°47' E 023°38'2 4.9
2019-Jun-15 20:30N 37°49' E 023°37'2 4.8
2019-Jun-15 20:00N 37°52' E 023°37'2 4.2
2019-Jun-15 19:30N 37°54' E 023°37'2 4.1
2019-Jun-15 19:00N 37°56' E 023°37'1 1.6
2019-Jun-15 18:21N 37°56' E 023°38'0 0.0
2019-Jun-15 17:21N 37°56' E 023°38'0 0.0
2019-Jun-15 16:51N 37°56' E 023°38'0 0.0
2019-Jun-15 16:15N 37°56' E 023°38'0 0.0
2019-Jun-15 15:51N 37°56' E 023°38'0 0.0
2019-Jun-15 15:07N 37°56' E 023°38'0 0.0
2019-Jun-15 14:27N 37°56' E 023°38'0 0.0
2019-Jun-15 13:57N 37°56' E 023°38'0 0.0
2019-Jun-15 13:27N 37°56' E 023°38'0 0.0
2019-Jun-15 12:57N 37°56' E 023°38'0 0.0
2019-Jun-15 12:15N 37°56' E 023°38'0 0.0
2019-Jun-15 11:49N 37°56' E 023°38'0 0.0
2019-Jun-15 11:27N 37°56' E 023°38'0 0.0
2019-Jun-15 10:43N 37°56' E 023°38'0 0.0
2019-Jun-15 10:27N 37°56' E 023°38'0 0.0
2019-Jun-15 09:57N 37°56' E 023°38'0 0.0
2019-Jun-15 09:27N 37°56' E 023°38'0 0.0
2019-Jun-15 08:57N 37°56' E 023°38'0 0.0
2019-Jun-15 08:27N 37°56' E 023°38'0 0.0
2019-Jun-15 07:57N 37°56' E 023°38'0 0.0
2019-Jun-15 07:27N 37°56' E 023°38'0 0.0
2019-Jun-15 06:57N 37°56' E 023°38'0 0.0
2019-Jun-15 06:27N 37°56' E 023°38'0 0.0
2019-Jun-15 05:58N 37°56' E 023°38'0 0.0
2019-Jun-15 05:13N 37°56' E 023°38'0 0.0
2019-Jun-15 04:58N 37°56' E 023°38'0 0.0
2019-Jun-15 04:28N 37°56' E 023°38'0 0.0
2019-Jun-15 03:58N 37°56' E 023°38'0 0.3
2019-Jun-15 03:30N 37°56' E 023°38'2 4.0
2019-Jun-15 03:00N 37°55' E 023°36'4 7.6
2019-Jun-15 02:30N 37°52' E 023°39'5 9.3
2019-Jun-15 02:00N 37°47' E 023°41'5 9.2
2019-Jun-15 01:30N 37°43' E 023°44'5 9.3
2019-Jun-15 01:00N 37°39' E 023°47'4 9.0
2019-Jun-15 00:30N 37°37' E 023°52'5 9.1
2019-Jun-15 00:00N 37°37' E 023°58'156 5.2
2019-Jun-13 17:47N 40°11' E 024°26'2 7.7
2019-Jun-13 17:30N 40°12' E 024°24'4 8.3
2019-Jun-13 17:00N 40°15' E 024°20'5 9.4
2019-Jun-13 16:30N 40°19' E 024°16'15 8.1
2019-Jun-13 14:38N 40°34' E 024°17'1 9.1
2019-Jun-13 14:30N 40°35' E 024°18'5 9.2
2019-Jun-13 14:00N 40°39' E 024°19'5 9.1
2019-Jun-13 13:30N 40°44' E 024°21'4 9.0
2019-Jun-13 13:00N 40°48' E 024°22'4 8.6
2019-Jun-13 12:30N 40°52' E 024°23'4 7.4
2019-Jun-13 12:01N 40°56' E 024°24'0 0.4
2019-Jun-13 11:29N 40°56' E 024°25'0 0.0
2019-Jun-13 11:00N 40°56' E 024°25'0 0.0
2019-Jun-13 10:28N 40°56' E 024°25'0 0.0
2019-Jun-13 10:00N 40°56' E 024°25'0 0.0
2019-Jun-13 09:30N 40°56' E 024°25'0 0.0
2019-Jun-13 08:58N 40°56' E 024°25'0 0.0
2019-Jun-13 08:28N 40°56' E 024°25'0 0.0
2019-Jun-13 07:58N 40°56' E 024°25'0 0.0
2019-Jun-13 07:28N 40°56' E 024°25'0 0.0
2019-Jun-13 06:52N 40°56' E 024°25'0 0.0
2019-Jun-13 06:28N 40°56' E 024°25'0 0.0
2019-Jun-13 05:03N 40°56' E 024°25'0 0.1
2019-Jun-13 05:00N 40°56' E 024°25'1 2.4
2019-Jun-13 04:31N 40°55' E 024°24'3 5.1
2019-Jun-13 04:00N 40°52' E 024°24'3 5.8
2019-Jun-13 03:30N 40°49' E 024°24'3 6.2
2019-Jun-13 03:00N 40°46' E 024°24'3 6.1
2019-Jun-13 02:30N 40°43' E 024°23'3 5.9
2019-Jun-13 02:00N 40°40' E 024°24'3 6.2
2019-Jun-13 01:30N 40°38' E 024°26'3 6.0
2019-Jun-13 01:00N 40°35' E 024°27'3 5.9
2019-Jun-13 00:30N 40°32' E 024°28'3 6.0
2019-Jun-13 00:00N 40°29' E 024°29'3 5.8
2019-Jun-12 23:30N 40°26' E 024°30'3 6.0
2019-Jun-12 23:00N 40°23' E 024°31'3 6.0
2019-Jun-12 22:30N 40°20' E 024°32'3 5.9
2019-Jun-12 21:58N 40°17' E 024°34'3 5.9
2019-Jun-12 21:30N 40°15' E 024°35'3 5.9
2019-Jun-12 21:00N 40°12' E 024°36'3 5.9
2019-Jun-12 20:29N 40°09' E 024°37'9 5.9
2019-Jun-12 18:57N 40°00' E 024°41'8 5.9
2019-Jun-12 17:38N 39°53' E 024°44'1 5.6
2019-Jun-12 17:28N 39°52' E 024°45'  
2019-Jun-09 18:49N 36°59' E 025°19'310.0
2019-Jun-09 18:30N 37°02' E 025°18'510.4
2019-Jun-09 18:00N 37°07' E 025°19'510.0
2019-Jun-09 17:30N 37°12' E 025°19'510.4
2019-Jun-09 17:00N 37°17' E 025°18'611.2
2019-Jun-09 16:29N 37°23' E 025°17'4 8.3
2019-Jun-09 15:57N 37°27' E 025°19'0 0.1
2019-Jun-09 13:02N 37°27' E 025°19'0 0.0
2019-Jun-09 11:56N 37°27' E 025°19'0 0.2
2019-Jun-09 11:28N 37°27' E 025°19'1 1.1
2019-Jun-09 11:00N 37°27' E 025°19'0 0.1
2019-Jun-09 10:26N 37°27' E 025°19'0 0.0
2019-Jun-09 09:56N 37°27' E 025°19'0 0.1
2019-Jun-09 08:38N 37°27' E 025°19'0 0.0
2019-Jun-09 08:29N 37°27' E 025°19'0 0.0
2019-Jun-09 07:04N 37°27' E 025°19'0 0.0
2019-Jun-09 06:56N 37°27' E 025°19'0 0.6
2019-Jun-09 06:30N 37°27' E 025°19'3 5.2
2019-Jun-09 06:01N 37°28' E 025°16'3 5.7
2019-Jun-09 05:31N 37°29' E 025°13'3 5.3
2019-Jun-09 05:00N 37°30' E 025°09'6 5.6
2019-Jun-09 04:01N 37°30' E 025°02'5 7.7
2019-Jun-09 03:23N 37°32' E 024°57'2 4.3
2019-Jun-09 02:59N 37°33' E 024°55'3 5.7
2019-Jun-09 02:30N 37°33' E 024°51'3 5.1
2019-Jun-09 02:00N 37°33' E 024°48'3 5.2
2019-Jun-09 01:30N 37°33' E 024°45'35 7.0
2019-Jun-08 20:30N 37°33' E 024°01'9 7.6
2019-Jun-08 19:16N 37°36' E 023°50'2 7.6
2019-Jun-08 19:00N 37°37' E 023°47'4 7.2
2019-Jun-08 18:31N 37°38' E 023°43'4 7.7
2019-Jun-08 18:00N 37°42' E 023°41'4 7.7
2019-Jun-08 17:30N 37°45' E 023°39'4 7.8
2019-Jun-08 17:00N 37°49' E 023°37'4 7.4
2019-Jun-08 16:30N 37°52' E 023°37'4 7.2
2019-Jun-08 16:01N 37°56' E 023°37'1 1.8
2019-Jun-08 15:28N 37°56' E 023°38'0 0.0
2019-Jun-08 14:44N 37°56' E 023°38'0 0.0
2019-Jun-08 14:26N 37°56' E 023°38'0 0.0
2019-Jun-08 13:56N 37°56' E 023°38'0 0.0
2019-Jun-08 13:08N 37°56' E 023°38'0 0.0
2019-Jun-08 12:56N 37°56' E 023°38'0 0.0
2019-Jun-08 12:26N 37°56' E 023°38'0 0.0
2019-Jun-08 11:26N 37°56' E 023°38'0 0.0
2019-Jun-08 10:59N 37°56' E 023°38'0 0.0
2019-Jun-08 10:26N 37°56' E 023°38'0 0.0
2019-Jun-08 09:56N 37°56' E 023°38'0 0.0
2019-Jun-08 09:26N 37°56' E 023°38'0 0.0
2019-Jun-08 08:59N 37°56' E 023°38'0 0.0
2019-Jun-08 08:26N 37°56' E 023°38'0 0.0
2019-Jun-08 07:59N 37°56' E 023°38'0 0.0
2019-Jun-08 07:29N 37°56' E 023°38'0 0.0
2019-Jun-08 06:59N 37°56' E 023°38'0 0.0
2019-Jun-08 06:29N 37°56' E 023°38'0 0.0
2019-Jun-08 05:59N 37°56' E 023°38'0 0.0
2019-Jun-08 05:26N 37°56' E 023°38'0 0.0
2019-Jun-08 04:59N 37°56' E 023°38'0 0.0
2019-Jun-08 04:23N 37°56' E 023°38'0 0.0
2019-Jun-08 03:59N 37°56' E 023°38'1 2.7
2019-Jun-08 03:31N 37°56' E 023°37'2 3.3
2019-Jun-08 03:00N 37°54' E 023°36'2 4.3
2019-Jun-08 02:31N 37°53' E 023°38'3 6.5
2019-Jun-08 02:01N 37°50' E 023°40'3 6.6
2019-Jun-08 01:30N 37°47' E 023°41'3 6.8
2019-Jun-08 01:01N 37°43' E 023°43'3 6.7
2019-Jun-08 00:30N 37°40' E 023°45'3 6.5
2019-Jun-08 00:00N 37°37' E 023°46'2 4.5
2019-Jun-07 23:29N 37°36' E 023°44'6 4.5
2019-Jun-07 22:09N 37°31' E 023°40'1 4.8
2019-Jun-07 21:53N 37°30' E 023°39'2 4.9
2019-Jun-07 21:30N 37°29' E 023°37'9 4.5
2019-Jun-07 19:28N 37°23' E 023°28'2 0.9
2019-Jun-07 17:29N 37°21' E 023°28'0 0.0
2019-Jun-07 16:56N 37°21' E 023°28'0 0.0
2019-Jun-07 15:02N 37°21' E 023°28'0 0.0
2019-Jun-07 14:53N 37°21' E 023°28'0 0.0
2019-Jun-07 14:08N 37°21' E 023°28'0 0.0
2019-Jun-07 11:26N 37°21' E 023°28'0 0.0
2019-Jun-07 08:53N 37°21' E 023°28'3 2.5
2019-Jun-07 07:46N 37°24' E 023°27'0 0.2
2019-Jun-07 07:21N 37°24' E 023°27'0 1.1
2019-Jun-07 07:00N 37°24' E 023°28'1 3.0
2019-Jun-07 06:30N 37°24' E 023°30'4 6.1
2019-Jun-07 05:48N 37°23' E 023°35'2 6.3
2019-Jun-07 05:30N 37°22' E 023°37'  

Dump ship's entire track history